createdAt,value
2019-05-25T00:04:37.806Z,6.1
2019-05-25T00:09:40.280Z,7.6
2019-05-25T00:14:42.529Z,6.1
2019-05-25T00:19:44.870Z,7.4
2019-05-25T00:24:47.039Z,5.3
2019-05-25T00:29:49.494Z,4.5
2019-05-25T00:34:51.733Z,7.1
2019-05-25T00:39:54.033Z,7.8
2019-05-25T00:44:56.230Z,5.9
2019-05-25T00:49:58.591Z,5.2
2019-05-25T00:55:00.927Z,7.6
2019-05-25T01:00:04.656Z,6.6
2019-05-25T01:05:05.426Z,5.3
2019-05-25T01:10:07.761Z,6.7
2019-05-25T01:15:10.581Z,6.5
2019-05-25T01:20:12.311Z,7.1
2019-05-25T01:25:14.571Z,8.6
2019-05-25T01:30:17.020Z,8.5
2019-05-25T01:35:19.113Z,7.1
2019-05-25T01:40:21.524Z,6.1
2019-05-25T01:45:23.776Z,7.9
2019-05-25T01:50:26.057Z,10.4
2019-05-25T01:55:28.451Z,7
2019-05-25T02:00:30.731Z,7.2
2019-05-25T02:05:32.905Z,7
2019-05-25T02:10:35.315Z,8.9
2019-05-25T02:15:37.691Z,12.1
2019-05-25T02:20:39.863Z,8.5
2019-05-25T02:25:42.067Z,6.7
2019-05-25T02:30:44.374Z,8.1
2019-05-25T02:35:46.766Z,9.1
2019-05-25T02:40:48.971Z,8.5
2019-05-25T02:45:58.335Z,8.8
2019-05-25T02:50:59.565Z,6.3
2019-05-25T02:56:07.338Z,13.3
2019-05-25T03:01:07.586Z,9.1
2019-05-25T03:06:09.922Z,8
2019-05-25T03:11:12.118Z,12
2019-05-25T03:16:14.443Z,8.1
2019-05-25T03:21:16.639Z,9.8
2019-05-25T03:26:19.063Z,11.3
2019-05-25T03:31:21.219Z,8.9
2019-05-25T03:36:23.563Z,9.6
2019-05-25T03:41:25.905Z,9.5
2019-05-25T03:46:28.188Z,10.6
2019-05-25T03:51:30.507Z,8.6
2019-05-25T03:56:32.702Z,11.4
2019-05-25T04:01:35.139Z,10
2019-05-25T04:06:37.321Z,11.4
2019-05-25T04:11:39.634Z,10.3
2019-05-25T04:16:41.960Z,8.8
2019-05-25T04:21:44.231Z,7.6
2019-05-25T04:26:46.657Z,10.7
2019-05-25T04:31:48.845Z,12.5
2019-05-25T04:36:51.150Z,11.2
2019-05-25T04:41:53.569Z,9.9
2019-05-25T04:46:55.621Z,12.2
2019-05-25T04:51:58.044Z,12.2
2019-05-25T04:57:00.378Z,10.8
2019-05-25T05:02:03.244Z,9
2019-05-25T05:07:05.006Z,14.5
2019-05-25T05:12:07.202Z,11.7
2019-05-25T05:17:09.487Z,11.4
2019-05-25T05:22:11.902Z,12
2019-05-25T05:27:14.155Z,12.7
2019-05-25T05:32:27.100Z,11.1
2019-05-25T05:37:18.803Z,10
2019-05-25T05:42:20.961Z,10.3
2019-05-25T05:47:23.168Z,7.2
2019-05-25T05:52:25.574Z,6.4
2019-05-25T05:57:27.754Z,7.9
2019-05-25T06:02:30.218Z,8.9
2019-05-25T06:07:32.479Z,8.8
2019-05-25T06:12:34.964Z,8.5
2019-05-25T06:17:36.972Z,10.9
2019-05-25T06:22:39.346Z,9.1
2019-05-25T06:27:41.589Z,8.4
2019-05-25T06:32:44.018Z,9
2019-05-25T06:37:46.313Z,9.6
2019-05-25T06:42:48.537Z,9.4
2019-05-25T06:47:50.881Z,7.6
2019-05-25T06:52:53.158Z,4.3
2019-05-25T06:57:55.289Z,5.9
2019-05-25T07:02:57.706Z,6.1
2019-05-25T07:07:59.941Z,7.5
2019-05-25T07:13:02.310Z,5.5
2019-05-25T07:18:04.665Z,7.1
2019-05-25T07:23:07.133Z,5.8
2019-05-25T07:28:09.091Z,4.2
2019-05-25T07:33:11.427Z,5.3
2019-05-25T07:38:13.762Z,5.2
2019-05-25T07:43:15.992Z,9.5
2019-05-25T07:53:20.646Z,6.4
2019-05-25T07:58:23.020Z,9.3
2019-05-25T08:03:25.211Z,5.3
2019-05-25T08:08:27.482Z,7.3
2019-05-25T08:13:29.815Z,5.1
2019-05-25T08:18:32.003Z,8
2019-05-25T08:23:34.295Z,8.4
2019-05-25T08:28:36.874Z,10.2
2019-05-25T08:33:39.032Z,6.3
2019-05-25T08:38:41.307Z,6.5
2019-05-25T08:43:43.576Z,6.5
2019-05-25T08:48:45.948Z,8.7
2019-05-25T08:53:48.312Z,9.7
2019-05-25T08:58:50.529Z,9.7
2019-05-25T09:03:52.807Z,10.1
2019-05-25T09:08:55.041Z,10.3
2019-05-25T09:13:57.297Z,10.1
2019-05-25T09:18:59.551Z,9.1
2019-05-25T09:24:01.995Z,9.9
2019-05-25T09:29:05.028Z,8.1
2019-05-25T09:34:06.429Z,9.5
2019-05-25T09:39:08.930Z,11.5
2019-05-25T09:44:11.051Z,10.7
2019-05-25T09:49:13.466Z,8.4
2019-05-25T09:54:15.650Z,12.6
2019-05-25T09:59:20.360Z,12
2019-05-25T10:04:20.379Z,8.4
2019-05-25T10:09:22.601Z,10.5
2019-05-25T10:14:24.837Z,9.5
2019-05-25T10:19:27.254Z,9
2019-05-25T10:24:29.451Z,6.6
2019-05-25T10:29:37.213Z,7.7
2019-05-25T10:34:34.166Z,6.4
2019-05-25T10:39:36.429Z,6.5
2019-05-25T10:44:38.581Z,9.4
2019-05-25T10:49:40.895Z,5.1
2019-05-25T10:54:43.417Z,7.1
2019-05-25T10:59:52.759Z,9.5
2019-05-25T11:04:47.905Z,6.8
2019-05-25T11:09:50.087Z,7.6
2019-05-25T11:14:52.408Z,5.5
2019-05-25T11:19:54.695Z,9.4
2019-05-25T11:24:56.919Z,9.2
2019-05-25T11:30:08.396Z,6.4
2019-05-25T11:35:01.502Z,8.1
2019-05-25T11:40:03.834Z,7.3
2019-05-25T11:45:06.165Z,7.6
2019-05-25T11:50:08.414Z,6.7
2019-05-25T11:55:11.023Z,6
2019-05-25T12:00:24.328Z,4.2
2019-05-25T12:05:15.321Z,4.3
2019-05-25T12:10:17.623Z,5.8
2019-05-25T12:15:19.866Z,4.3
2019-05-25T12:20:22.442Z,3.3
2019-05-25T12:25:24.522Z,4.2
2019-05-25T12:30:39.799Z,5.8
2019-05-25T12:35:29.071Z,3
2019-05-25T12:40:31.374Z,6.3
2019-05-25T12:45:34.381Z,4.9
2019-05-25T12:50:36.113Z,5.6
2019-05-25T12:55:38.361Z,8.1
2019-05-25T13:00:54.979Z,5.1
2019-05-25T13:05:42.795Z,6.6
2019-05-25T13:10:46.152Z,5.1
2019-05-25T13:15:47.421Z,6.6
2019-05-25T13:20:49.884Z,3.3
2019-05-25T13:25:52.068Z,5.4
2019-05-25T13:30:54.377Z,4.9
2019-05-25T13:35:56.679Z,6.2
2019-05-25T13:40:58.948Z,3.3
2019-05-25T13:46:01.168Z,5.2
2019-05-25T13:51:03.475Z,5
2019-05-25T13:56:05.793Z,6.3
2019-05-25T14:01:08.122Z,6.4
2019-05-25T14:06:10.420Z,8.1
2019-05-25T14:11:12.746Z,6.1
2019-05-25T14:16:14.901Z,5.3
2019-05-25T14:21:17.231Z,6.1
2019-05-25T14:26:19.516Z,5.1
2019-05-25T14:31:22.105Z,5.4
2019-05-25T14:36:24.348Z,5.4
2019-05-25T14:41:26.452Z,6
2019-05-25T14:46:28.728Z,7.6
2019-05-25T14:56:33.329Z,4.9
2019-05-25T15:01:35.575Z,4.4
2019-05-25T15:06:37.932Z,4.5
2019-05-25T15:11:40.162Z,4.2
2019-05-25T15:16:42.572Z,8.5
2019-05-25T15:21:44.829Z,5.1
2019-05-25T15:26:47.153Z,8.5
2019-05-25T15:31:49.361Z,8.2
2019-05-25T15:36:51.623Z,9.9
2019-05-25T15:41:53.925Z,10.8
2019-05-25T15:46:56.237Z,8.2
2019-05-25T15:51:58.502Z,9.8
2019-05-25T15:57:00.933Z,10.3
2019-05-25T16:02:03.208Z,7
2019-05-25T16:07:05.413Z,9.1
2019-05-25T16:12:07.694Z,9.5
2019-05-25T16:17:10.058Z,10.9
2019-05-25T16:22:12.454Z,13.2
2019-05-25T16:27:14.781Z,13.3
2019-05-25T16:32:17.000Z,10.8
2019-05-25T16:37:19.390Z,13.1
2019-05-25T16:42:21.482Z,15.2
2019-05-25T16:47:23.779Z,13.9
2019-05-25T16:52:26.106Z,12.7
2019-05-25T16:57:28.455Z,10.9
2019-05-25T17:02:30.803Z,12
2019-05-25T17:07:32.988Z,12.2
2019-05-25T17:12:35.268Z,14.6
2019-05-25T17:17:37.547Z,11.7
2019-05-25T17:22:39.895Z,13.2
2019-05-25T17:27:42.159Z,12.3
2019-05-25T17:32:44.502Z,11.5
2019-05-25T17:37:46.878Z,11.9
2019-05-25T17:42:49.023Z,15.9
2019-05-25T17:47:51.434Z,12.5
2019-05-25T17:52:53.632Z,12.1
2019-05-25T17:57:55.894Z,10.3
2019-05-25T18:02:58.215Z,9.4
2019-05-25T18:08:00.501Z,11.4
2019-05-25T18:13:02.940Z,8.8
2019-05-25T18:18:05.201Z,5.9
2019-05-25T18:23:07.499Z,5.7
2019-05-25T18:28:09.770Z,6.4
2019-05-25T18:33:11.944Z,3.5
2019-05-25T18:38:14.320Z,4.7
2019-05-25T18:43:16.574Z,5.9
2019-05-25T18:48:18.796Z,4.8
2019-05-25T18:53:21.266Z,5.4
2019-05-25T18:58:23.530Z,5.4
2019-05-25T19:03:25.736Z,9.7
2019-05-25T19:08:28.130Z,9
2019-05-25T19:13:30.368Z,10.1
2019-05-25T19:18:32.581Z,9.9
2019-05-25T19:23:34.896Z,9.1
2019-05-25T19:28:37.218Z,8
2019-05-25T19:33:39.851Z,8.2
2019-05-25T19:38:41.833Z,11.6
2019-05-25T19:43:44.150Z,10.2
2019-05-25T19:48:46.384Z,7.9
2019-05-25T19:53:48.678Z,8.8
2019-05-25T19:58:50.919Z,8.6
2019-05-25T20:03:57.200Z,12.3
2019-05-25T20:08:55.514Z,11.7
2019-05-25T20:13:58.001Z,9.9
2019-05-25T20:19:01.004Z,9.8
2019-05-25T20:24:02.458Z,9.5
2019-05-25T20:29:04.763Z,13
2019-05-25T20:34:07.057Z,9.3
2019-05-25T20:39:09.474Z,9.4
2019-05-25T20:44:11.816Z,11.3
2019-05-25T20:49:14.047Z,10.3
2019-05-25T20:54:16.283Z,10.6
2019-05-25T20:59:18.442Z,9.8
2019-05-25T21:04:21.084Z,9.3
2019-05-25T21:09:23.413Z,10.6
2019-05-25T21:14:25.386Z,9.5
2019-05-25T21:19:28.339Z,9.2
2019-05-25T21:24:30.050Z,6.5
2019-05-25T21:29:32.327Z,7.8
2019-05-25T21:34:34.589Z,8.3
2019-05-25T21:39:36.876Z,11.1
2019-05-25T21:44:39.220Z,8.1
2019-05-25T21:49:41.519Z,8.6
2019-05-25T21:54:43.866Z,8.4
2019-05-25T21:59:45.936Z,9
2019-05-25T22:04:48.325Z,11.3
2019-05-25T22:09:51.082Z,10.2
2019-05-25T22:14:52.972Z,9.6
2019-05-25T22:19:55.220Z,11.3
2019-05-25T22:24:57.491Z,8.3
2019-05-25T22:30:01.648Z,10.4
2019-05-25T22:35:02.110Z,8.1
2019-05-25T22:40:04.548Z,8.3
2019-05-25T22:45:06.742Z,12.1
2019-05-25T22:50:09.103Z,12.1
2019-05-25T22:55:11.334Z,9.7
2019-05-25T23:00:13.653Z,10.3
2019-05-25T23:05:15.995Z,10
2019-05-25T23:10:18.191Z,12.2
2019-05-25T23:15:20.609Z,11
2019-05-25T23:20:22.677Z,12.2
2019-05-25T23:25:25.110Z,10
2019-05-25T23:30:27.472Z,9.4
2019-05-25T23:35:29.700Z,7.9
2019-05-25T23:40:32.050Z,8.4
2019-05-25T23:45:34.251Z,6.7
2019-05-25T23:50:36.565Z,7.1
2019-05-25T23:55:38.926Z,9.2
